Nearby METAR Reports

 

KBGR - Bangor, Maine, USA
Distance from station: E 5mi, 8km
Updated: Sun, 17-Feb-2019 10:53pm EST
Overcast
Overcast
 Wind from NW
Wind: NW 3 mph , 6 km/h
Temperature: 19°F , -7°C
Dew Point: 3°F , -16°C
Humidity: 49%
Barometer: 30.05 inHg , 1017.6 hPa
Clouds: Overcast
Visibility: 10 miles , 16 km
Cloud details: Overcast 15000 ft
2019/02/18 03:53 KBGR 180353Z 32003KT 10SM OVC150 M07/M16 A3005 RMK AO2 SLP181 T10721161
KBHB - Bar Harbor, Maine, USA
Distance from station: SE 37mi, 59km
Updated: Sun, 17-Feb-2019 10:56pm EST
Clear
Clear
 Wind from calm
Wind: Calm
Temperature: 19°F , -7°C
Dew Point: 10°F , -12°C
Humidity: 68%
Barometer: 30.06 inHg , 1017.9 hPa
Clouds: Clear
Visibility: 10 miles , 16 km
2019/02/18 03:56 KBHB 180356Z AUTO 00000KT 10SM CLR M07/M12 A3006 RMK AO2 SLP182 T10721122 FZRANO
 
KWVL - Waterville, Maine, USA
Distance from station: WSW 42mi, 68km
Updated: Sun, 17-Feb-2019 10:56pm EST
Few Clouds
Few Clouds
 Wind from NNE
Wind: NNE 7 mph , 11 km/h
Temperature: 19°F , -7°C
Wind Chill: 10°F , -12°C
Dew Point: 5°F , -15°C
Humidity: 53%
Barometer: 30.01 inHg , 1016.3 hPa
Clouds: Few Clouds
Visibility: 10 miles , 16 km
Cloud details: Few Clouds 12000 ft
2019/02/18 03:56 KWVL 180356Z AUTO 03006KT 10SM FEW120 M07/M15 A3001 RMK AO2 SLP198 T10721150 FZRANO
KRKD - Rockland/Knox, Maine, USA
Distance from station: S 52mi, 84km
Updated: Sun, 17-Feb-2019 10:56pm EST
Clear
Clear
 Wind from varies
Wind: varies 5 mph , 7 km/h
Temperature: 23°F , -5°C
Wind Chill: 17°F , -8°C
Dew Point: 18°F , -8°C
Humidity: 80%
Barometer: 30.04 inHg , 1017.3 hPa
Clouds: Clear
Visibility: 10 miles , 16 km
2019/02/18 03:56 KRKD 180356Z AUTO VRB04KT 10SM CLR M05/M08 A3004 RMK AO2 SLP175 T10501083 FZRANO
 
KAUG - Augusta, Maine, USA
Distance from station: SW 55mi, 89km
Updated: Sun, 17-Feb-2019 10:53pm EST
Partly cloudy
Partly cloudy
 Wind from N
Wind: N 7 mph , 11 km/h
Temperature: 19°F , -7°C
Wind Chill: 10°F , -12°C
Dew Point: 5°F , -15°C
Humidity: 53%
Barometer: 30.03 inHg , 1016.9 hPa
Clouds: Partly cloudy
Visibility: 10 miles , 16 km
Cloud details: Partly cloudy 12000 ft
2019/02/18 03:53 KAUG 180353Z AUTO 01006KT 10SM SCT120 M07/M15 A3003 RMK AO2 SLP175 T10671150
KGNR - Greenville, Maine, USA
Distance from station: NW 55mi, 89km
Updated: Sun, 17-Feb-2019 9:56pm EST

 Wind from NNW
Wind: NNW 6 mph , 9 km/h
Temperature: 9°F , -13°C
Wind Chill: -1°F , -18°C
Dew Point: -6°F , -21°C
Humidity: 51%
Barometer: 29.95 inHg , 1014.2 hPa
2019/02/18 02:56 KGNR 180256Z AUTO 34005KT M13/M21 A2995 RMK AO1 SLP176 T11281206 53000
 
KMLT - Millinocket, Maine, USA
Distance from station: N 59mi, 95km
Updated: Sun, 17-Feb-2019 10:53pm EST
Clear
Clear
 Wind from W
Wind: W 5 mph , 7 km/h
Temperature: 10°F , -12°C
Wind Chill: 1°F , -17°C
Dew Point: -0°F , -18°C
Humidity: 61%
Barometer: 30.06 inHg , 1017.9 hPa
Clouds: Clear
Visibility: 10 miles , 16 km
2019/02/18 03:53 KMLT 180353Z AUTO 28004KT 10SM CLR M12/M18 A3006 RMK AO2 SLP192 T11171178
KIWI - Wiscasset, Maine, USA
Distance from station: SW 70mi, 113km
Updated: Sun, 17-Feb-2019 10:53pm EST
Few Clouds
Few Clouds
 Wind from calm
Wind: Calm
Temperature: 21°F , -6°C
Dew Point: 16°F , -9°C
Humidity: 80%
Barometer: 30.06 inHg , 1017.9 hPa
Clouds: Few Clouds
Visibility: 10 miles , 16 km
Cloud details: Few Clouds 12000 ft
2019/02/18 03:53 KIWI 180353Z AUTO 00000KT 10SM FEW120 M06/M09 A3006 RMK AO2 SLP179 T10611089
 
CWSS - St. Stephen (mar, New Brunswick, Canada
Distance from station: ENE 86mi, 138km
Updated: Sun, 17-Feb-2019 10:00pm EST

 Wind from NW
Wind: NW 1 mph , 2 km/h
Temperature: 12°F , -11°C
Dew Point: 5°F , -15°C
Humidity: 73%
2019/02/18 03:00 CWSS 180300Z AUTO 31001KT M11/M15 RMK AO1 SOG 14 3003 SLP181 T11071146
KLEW - Auburn/Lewiston, Maine, USA
Distance from station: SW 86mi, 138km
Updated: Sun, 17-Feb-2019 10:56pm EST
Overcast
Overcast
 Wind from NNW
Wind: NNW 3 mph , 6 km/h
Temperature: 21°F , -6°C
Dew Point: 7°F , -14°C
Humidity: 54%
Barometer: 30.04 inHg , 1017.3 hPa
Clouds: Overcast
Visibility: 10 miles , 16 km
Cloud details: Overcast 11000 ft
2019/02/18 03:56 KLEW 180356Z AUTO 34003KT 10SM OVC110 M06/M14 A3004 RMK AO2 SLP188 T10561139 410061106 FZRANO
 
KHUL - Houlton, Maine, USA
Distance from station: NNE 105mi, 169km
Updated: Sun, 17-Feb-2019 4:53am EST
NOT Current

 Wind from NNW
Wind: NNW 3 mph , 6 km/h
Temperature: 10°F , -12°C
Dew Point: 3°F , -16°C
Humidity: 72%
Barometer: 29.92 inHg , 1013.2 hPa
Visibility: 10 miles , 16 km
2019/02/17 09:53 KHUL 170953Z AUTO 33003KT 10SM M12/M16 A2992 RMK AO2 SLP141 T11221161 $
KPWM - Portland, Maine, USA
Distance from station: SW 105mi, 170km
Updated: Sun, 17-Feb-2019 10:51pm EST
Overcast
Overcast
 Wind from SW
Wind: SW 3 mph , 6 km/h
Temperature: 27°F , -3°C
Dew Point: 18°F , -8°C
Humidity: 69%
Barometer: 30.06 inHg , 1017.9 hPa
Clouds: Overcast
Visibility: 10 miles , 16 km
Cloud details: Overcast 11000 ft
2019/02/18 03:51 KPWM 180351Z 23003KT 10SM OVC110 M03/M08 A3006 RMK AO2 SLP179 T10281078
 
KBML - Berlin, New Hampshire, USA
Distance from station: W 113mi, 181km
Updated: Sun, 17-Feb-2019 10:52pm EST
Mostly cloudy
Mostly cloudy
 Wind from calm
Wind: Calm
Temperature: 7°F , -14°C
Dew Point: 1°F , -17°C
Humidity: 78%
Barometer: 29.98 inHg , 1015.2 hPa
Clouds: Mostly cloudy
Visibility: 10 miles , 16 km
Cloud details: Mostly cloudy 11000 ft
2019/02/18 03:52 KBML 180352Z AUTO 00000KT 10SM BKN110 M14/M17 A2998 RMK AO2 SLP177 T11441167
KIZG - Fryeburg, Maine, USA
Distance from station: WSW 116mi, 186km
Updated: Sun, 17-Feb-2019 10:54pm EST
Overcast
Overcast
 Wind from W
Wind: W 3 mph , 6 km/h
Temperature: 19°F , -7°C
Dew Point: 7°F , -14°C
Humidity: 58%
Barometer: 30.03 inHg , 1016.9 hPa
Clouds: Overcast
Visibility: 10 miles , 16 km
Cloud details: Overcast 10000 ft
2019/02/18 03:54 KIZG 180354Z AUTO 28003KT 10SM OVC100 M07/M14 A3003 RMK AO2 SLP178 T10721144
 
CWPE - Point Lepreau, New Brunswick, Canada
Distance from station: E 121mi, 195km
Updated: Sun, 17-Feb-2019 10:00pm EST

 Wind from NNW
Wind: NNW 2 mph , 4 km/h
Temperature: 16°F , -9°C
Dew Point: 9°F , -13°C
Humidity: 73%
2019/02/18 03:00 CWPE 180300Z AUTO 34002KT M09/M13 RMK AO1 SOG 06 3005 SLP179 T10861131
KMWN - Mount Washington, New Hampshire, USA
Distance from station: WSW 123mi, 198km
Updated: Sun, 17-Feb-2019 10:57pm EST
Overcast
Overcast
 Wind from W
Wind: W 26 mph , 43 km/h
Temperature: 7°F , -14°C
Wind Chill: -15°F , -26°C
Dew Point: -26°F , -32°C
Humidity: 20%
Clouds: Overcast
Visibility: 80 miles , 128 km
Cloud details: Few Clouds 3000 ft
Mostly cloudy 4000 ft
Overcast 8000 ft
2019/02/18 03:57 KMWN 180357Z 26023KT 80SM FEW030 BKN040 OVC080 M14/M32 RMK HALO ARND MOON
 
KPQI - Presque Isle, Maine, USA
Distance from station: ESE 136mi, 219km
Updated: Sun, 17-Feb-2019 10:56pm EST
Clear
Clear
 Wind from calm
Wind: Calm
Temperature: -9°F , -23°C
Dew Point: -15°F , -26°C
Humidity: 77%
Barometer: 30.04 inHg , 1017.3 hPa
Clouds: Clear
Visibility: 10 miles , 16 km
2019/02/18 03:56 KPQI 180356Z AUTO 00000KT 10SM CLR M23/M26 A3004 RMK AO2 SLP220 T12331256 FZRANO
KCAR - Caribou, Maine, USA
Distance from station: NNE 148mi, 238km
Updated: Sun, 17-Feb-2019 10:54pm EST
Clear
Clear
 Wind from N
Wind: N 6 mph , 9 km/h
Temperature: 1°F , -17°C
Wind Chill: -11°F , -24°C
Dew Point: -4°F , -20°C
Humidity: 78%
Barometer: 30.01 inHg , 1016.3 hPa
Clouds: Clear
Visibility: 10 miles , 16 km
2019/02/18 03:54 KCAR 180354Z AUTO 35005KT 10SM CLR M17/M20 A3001 RMK AO2 SLP181 T11671200 $